Time;durP1;ratioP1;P1;durP2;ratioP2;P2;SDS_P1;SDS_P2;PMS_P1;PMS_P2;Temp;Humidity;BMP_temperature;BMP_pressure;BME280_temperature;BME280_humidity;BME280_pressure;Samples;Min_cycle;Max_cycle;Signal;HPM_P1;HPM_P2
2023/09/20 00:01:02;;;;;;;6.70;1.70;;;;;;;;;;5049256;28;20049;-59
2023/09/20 00:03:28;;;;;;;5.97;1.88;;;;;;;;;;5048673;28;20112;-60
2023/09/20 00:05:54;;;;;;;6.03;2.17;;;;;;;;;;5049205;28;20487;-59
2023/09/20 00:08:20;;;;;;;7.90;2.00;;;;;;;;;;5044220;28;20401;-60
2023/09/20 00:10:45;;;;;;;6.43;2.20;;;;;;;;;;5031550;28;20505;-60
2023/09/20 00:13:13;;;;;;;5.63;2.30;;;;;;;;;;5037179;28;20036;-60
2023/09/20 00:15:40;;;;;;;5.93;2.03;;;;;;;;;;5048956;28;20430;-59
2023/09/20 00:18:07;;;;;;;5.00;1.83;;;;;;;;;;5046724;28;20052;-60
2023/09/20 00:20:33;;;;;;;6.07;1.90;;;;;;;;;;5047392;28;20028;-58
2023/09/20 00:23:00;;;;;;;6.82;1.92;;;;;;;;;;5037716;28;20098;-59
2023/09/20 00:25:27;;;;;;;3.25;1.60;;;;;;;;;;5050541;28;20112;-59
2023/09/20 00:27:52;;;;;;;5.63;1.90;;;;;;;;;;5049006;28;20030;-59
2023/09/20 00:30:19;;;;;;;5.70;1.90;;;;;;;;;;5034905;28;20115;-60
2023/09/20 00:32:45;;;;;;;5.97;2.10;;;;;;;;;;5048956;28;20065;-60
2023/09/20 00:35:12;;;;;;;5.10;1.75;;;;;;;;;;5048507;28;20101;-60
2023/09/20 00:37:39;;;;;;;6.38;2.05;;;;;;;;;;5045384;28;20111;-59
2023/09/20 00:40:13;;;;;;;5.57;1.70;;;;;;;;;;5036744;28;20063;-58
2023/09/20 00:42:38;;;;;;;7.32;2.40;;;;;;;;;;5039553;28;20041;-59
2023/09/20 00:45:04;;;;;;;5.82;1.90;;;;;;;;;;5049250;28;20036;-59
2023/09/20 00:47:30;;;;;;;7.18;2.15;;;;;;;;;;5050958;28;20029;-59
2023/09/20 00:49:56;;;;;;;4.38;2.13;;;;;;;;;;5042042;28;20037;-59
2023/09/20 00:52:23;;;;;;;4.43;2.15;;;;;;;;;;5043121;28;20051;-59
2023/09/20 00:54:49;;;;;;;8.63;2.08;;;;;;;;;;5030029;28;20033;-61
2023/09/20 00:57:15;;;;;;;5.07;1.88;;;;;;;;;;5049100;28;20056;-59
2023/09/20 00:59:41;;;;;;;4.15;1.83;;;;;;;;;;5054543;28;20388;-58
2023/09/20 01:02:08;;;;;;;4.20;1.73;;;;;;;;;;5049390;28;20082;-60
2023/09/20 01:04:34;;;;;;;4.65;1.60;;;;;;;;;;5052456;28;20056;-59
2023/09/20 01:07:00;;;;;;;3.55;1.60;;;;;;;;;;5041516;28;20175;-59
2023/09/20 01:09:26;;;;;;;5.38;1.80;;;;;;;;;;5049000;28;20067;-59
2023/09/20 01:11:53;;;;;;;6.68;1.80;;;;;;;;;;5037579;28;20074;-59
2023/09/20 01:14:20;;;;;;;5.28;2.08;;;;;;;;;;5053523;28;20041;-59
2023/09/20 01:16:45;;;;;;;6.70;1.73;;;;;;;;;;5050165;28;20132;-59
2023/09/20 01:19:11;;;;;;;6.40;1.70;;;;;;;;;;5052167;28;20454;-59
2023/09/20 01:21:46;;;;;;;5.95;2.05;;;;;;;;;;5053451;28;20078;-59
2023/09/20 01:24:13;;;;;;;5.18;1.92;;;;;;;;;;5053284;28;20033;-59
2023/09/20 01:26:41;;;;;;;5.18;2.30;;;;;;;;;;5049547;28;20116;-60
2023/09/20 01:29:07;;;;;;;3.38;1.80;;;;;;;;;;5050893;28;20041;-60
2023/09/20 01:31:33;;;;;;;3.30;1.90;;;;;;;;;;5049018;28;20361;-60
2023/09/20 01:33:59;;;;;;;4.53;1.75;;;;;;;;;;5051092;28;20025;-59
2023/09/20 01:36:24;;;;;;;4.10;1.70;;;;;;;;;;5048101;28;20478;-57
2023/09/20 01:38:50;;;;;;;4.50;1.90;;;;;;;;;;5047830;28;20032;-59
2023/09/20 01:41:18;;;;;;;4.68;1.95;;;;;;;;;;5049653;28;20024;-60
2023/09/20 01:43:44;;;;;;;4.80;1.98;;;;;;;;;;5049151;28;20051;-58
2023/09/20 01:46:09;;;;;;;6.07;2.10;;;;;;;;;;5050764;28;20024;-58
2023/09/20 01:48:36;;;;;;;6.60;2.10;;;;;;;;;;5050613;28;20389;-57
2023/09/20 01:51:02;;;;;;;4.65;1.77;;;;;;;;;;5050503;28;20033;-59
2023/09/20 01:53:28;;;;;;;6.55;2.20;;;;;;;;;;5053391;28;20052;-59
2023/09/20 01:55:54;;;;;;;6.22;2.38;;;;;;;;;;5050596;28;20032;-59
2023/09/20 01:58:19;;;;;;;5.93;1.98;;;;;;;;;;5049972;28;20080;-58
2023/09/20 02:00:50;;;;;;;7.32;2.08;;;;;;;;;;5050226;28;20034;-59
2023/09/20 02:03:16;;;;;;;4.95;2.05;;;;;;;;;;5050188;28;20029;-59
2023/09/20 02:05:44;;;;;;;5.95;2.00;;;;;;;;;;5051787;28;20059;-58
2023/09/20 02:08:09;;;;;;;6.15;2.00;;;;;;;;;;5030300;28;20042;-59
2023/09/20 02:10:39;;;;;;;6.32;1.90;;;;;;;;;;5043492;28;20082;-59
2023/09/20 02:13:05;;;;;;;4.03;1.80;;;;;;;;;;5044799;28;20614;-59
2023/09/20 02:15:34;;;;;;;6.15;2.15;;;;;;;;;;5049773;28;20397;-59
2023/09/20 02:18:00;;;;;;;5.70;1.90;;;;;;;;;;5048466;28;20492;-59
2023/09/20 02:20:25;;;;;;;4.55;2.03;;;;;;;;;;5051580;28;20033;-59
2023/09/20 02:22:53;;;;;;;6.88;1.80;;;;;;;;;;5051653;28;20036;-58
2023/09/20 02:25:20;;;;;;;3.42;2.00;;;;;;;;;;5050362;28;20484;-63
2023/09/20 02:27:50;;;;;;;5.05;2.33;;;;;;;;;;5037829;28;20036;-60
2023/09/20 02:30:24;;;;;;;11.02;2.50;;;;;;;;;;5036124;28;20033;-58
2023/09/20 02:32:51;;;;;;;5.57;2.13;;;;;;;;;;5048550;28;20532;-58
2023/09/20 02:35:17;;;;;;;8.10;2.00;;;;;;;;;;5050543;28;20091;-58
2023/09/20 02:37:43;;;;;;;6.53;2.08;;;;;;;;;;5047071;28;20128;-59
2023/09/20 02:40:17;;;;;;;5.15;2.10;;;;;;;;;;5042042;28;20037;-60
2023/09/20 02:42:45;;;;;;;7.22;2.10;;;;;;;;;;5042123;28;20032;-59
2023/09/20 02:45:12;;;;;;;5.32;2.10;;;;;;;;;;5050739;28;20074;-58
2023/09/20 02:47:43;;;;;;;7.50;2.10;;;;;;;;;;5047316;28;20036;-58
2023/09/20 02:50:11;;;;;;;4.45;2.00;;;;;;;;;;5050182;28;20040;-59
2023/09/20 02:52:41;;;;;;;8.57;2.65;;;;;;;;;;5051567;28;20033;-59
2023/09/20 02:55:13;;;;;;;4.28;1.80;;;;;;;;;;5051153;28;20029;-59
2023/09/20 02:57:42;;;;;;;7.10;2.15;;;;;;;;;;5049314;28;20036;-59
2023/09/20 03:00:16;;;;;;;6.63;2.42;;;;;;;;;;5051194;28;20028;-59
2023/09/20 03:02:46;;;;;;;5.70;2.08;;;;;;;;;;5044944;28;20029;-58
2023/09/20 03:05:15;;;;;;;7.75;2.10;;;;;;;;;;5043232;28;20036;-58
2023/09/20 03:07:42;;;;;;;5.63;2.28;;;;;;;;;;5045733;28;20033;-58
2023/09/20 03:10:12;;;;;;;6.75;1.88;;;;;;;;;;5046869;28;20024;-58
2023/09/20 03:12:44;;;;;;;5.22;2.40;;;;;;;;;;5040859;28;20082;-58
2023/09/20 03:15:17;;;;;;;5.53;2.05;;;;;;;;;;5049491;28;20033;-58
2023/09/20 03:17:48;;;;;;;7.88;2.22;;;;;;;;;;5047930;28;20049;-60
2023/09/20 03:20:32;;;;;;;6.35;2.20;;;;;;;;;;5048251;28;20059;-61
2023/09/20 03:23:00;;;;;;;5.30;2.30;;;;;;;;;;5047370;28;20048;-59
2023/09/20 03:25:35;;;;;;;6.43;2.40;;;;;;;;;;5049897;28;20056;-59
2023/09/20 03:28:02;;;;;;;8.18;2.42;;;;;;;;;;5050322;28;20409;-59
2023/09/20 03:30:28;;;;;;;4.35;2.00;;;;;;;;;;5050073;28;20041;-60
2023/09/20 03:32:54;;;;;;;6.88;2.45;;;;;;;;;;5047071;28;20054;-59
2023/09/20 03:35:21;;;;;;;6.18;2.22;;;;;;;;;;5047948;28;20461;-58
2023/09/20 03:37:47;;;;;;;6.53;2.22;;;;;;;;;;5042371;28;20079;-59
2023/09/20 03:40:17;;;;;;;9.30;2.20;;;;;;;;;;5047858;28;20428;-58
2023/09/20 03:42:48;;;;;;;6.30;2.38;;;;;;;;;;5048818;28;20116;-56
2023/09/20 03:45:14;;;;;;;6.07;2.40;;;;;;;;;;5047948;28;20037;-54
2023/09/20 03:47:45;;;;;;;8.90;2.33;;;;;;;;;;5050520;28;20029;-53
2023/09/20 03:50:11;;;;;;;9.00;2.40;;;;;;;;;;5050393;28;20028;-51
2023/09/20 03:52:40;;;;;;;4.65;2.13;;;;;;;;;;5049368;28;20037;-51
2023/09/20 03:55:06;;;;;;;5.18;2.10;;;;;;;;;;5046118;28;20072;-52
2023/09/20 03:57:32;;;;;;;5.97;2.30;;;;;;;;;;5050814;28;20045;-53
2023/09/20 03:59:58;;;;;;;6.05;2.55;;;;;;;;;;5050638;28;20090;-53
2023/09/20 04:02:24;;;;;;;6.50;2.38;;;;;;;;;;5051563;28;20444;-55
2023/09/20 04:04:50;;;;;;;8.65;2.53;;;;;;;;;;5051312;28;20484;-55
2023/09/20 04:07:16;;;;;;;3.33;2.25;;;;;;;;;;5052011;28;20033;-56
2023/09/20 04:09:44;;;;;;;6.43;1.88;;;;;;;;;;5051603;28;20052;-53
2023/09/20 04:12:13;;;;;;;6.85;2.30;;;;;;;;;;5049572;28;20040;-49
2023/09/20 04:14:39;;;;;;;8.23;2.60;;;;;;;;;;5050922;28;20037;-52
2023/09/20 04:17:04;;;;;;;7.63;2.38;;;;;;;;;;5049019;28;20053;-50
2023/09/20 04:19:30;;;;;;;8.32;2.72;;;;;;;;;;5051093;28;20470;-53
2023/09/20 04:21:56;;;;;;;3.53;2.40;;;;;;;;;;5049259;28;20129;-52
2023/09/20 04:24:22;;;;;;;6.32;2.42;;;;;;;;;;5049892;28;20095;-53
2023/09/20 04:26:48;;;;;;;5.82;2.10;;;;;;;;;;5049764;28;20033;-54
2023/09/20 04:29:13;;;;;;;5.32;2.33;;;;;;;;;;5050329;28;20033;-54
2023/09/20 04:31:40;;;;;;;5.88;2.50;;;;;;;;;;5053408;28;20036;-52
2023/09/20 04:34:05;;;;;;;6.40;2.47;;;;;;;;;;5054400;28;20071;-52
2023/09/20 04:36:31;;;;;;;5.22;2.35;;;;;;;;;;5055007;28;20057;-54
2023/09/20 04:38:56;;;;;;;7.65;2.10;;;;;;;;;;5053268;28;20025;-53
2023/09/20 04:41:21;;;;;;;6.13;2.55;;;;;;;;;;5055135;28;20436;-53
2023/09/20 04:43:47;;;;;;;6.05;2.50;;;;;;;;;;5054774;28;20461;-52
2023/09/20 04:46:13;;;;;;;6.00;2.35;;;;;;;;;;5052683;28;20021;-51
2023/09/20 04:48:39;;;;;;;6.68;2.30;;;;;;;;;;5055017;28;20029;-50
2023/09/20 04:51:05;;;;;;;8.27;2.38;;;;;;;;;;5052711;28;20032;-51
2023/09/20 04:53:33;;;;;;;6.53;2.45;;;;;;;;;;5051808;28;20029;-50
2023/09/20 04:55:58;;;;;;;6.72;2.28;;;;;;;;;;5053799;28;20037;-51
2023/09/20 04:58:24;;;;;;;6.88;2.40;;;;;;;;;;5054394;28;20382;-57
2023/09/20 05:00:49;;;;;;;4.22;2.42;;;;;;;;;;5053500;28;20152;-54
2023/09/20 05:03:15;;;;;;;7.55;2.20;;;;;;;;;;5054078;28;20025;-54
2023/09/20 05:05:43;;;;;;;7.90;2.60;;;;;;;;;;5054430;28;20073;-56
2023/09/20 05:08:08;;;;;;;7.65;2.63;;;;;;;;;;5050945;28;20032;-55
2023/09/20 05:10:34;;;;;;;6.43;2.50;;;;;;;;;;5053091;28;20036;-55
2023/09/20 05:13:00;;;;;;;6.13;2.50;;;;;;;;;;5053597;28;20033;-57
2023/09/20 05:15:25;;;;;;;6.35;2.40;;;;;;;;;;5054385;28;20532;-55
2023/09/20 05:17:51;;;;;;;5.95;2.45;;;;;;;;;;5054340;28;20044;-55
2023/09/20 05:20:16;;;;;;;6.30;2.30;;;;;;;;;;5053153;28;20029;-53
2023/09/20 05:22:42;;;;;;;7.00;2.38;;;;;;;;;;5051333;28;20040;-55
2023/09/20 05:25:09;;;;;;;6.07;2.40;;;;;;;;;;5053055;28;20147;-52
2023/09/20 05:27:35;;;;;;;5.95;2.50;;;;;;;;;;5053006;28;20108;-55
2023/09/20 05:30:01;;;;;;;6.57;2.33;;;;;;;;;;5051664;28;20033;-54
2023/09/20 05:32:27;;;;;;;6.90;2.40;;;;;;;;;;5054000;28;20032;-53
2023/09/20 05:34:52;;;;;;;7.47;2.75;;;;;;;;;;5050181;28;20033;-53
2023/09/20 05:37:18;;;;;;;6.50;2.67;;;;;;;;;;5052577;28;20033;-56
2023/09/20 05:39:47;;;;;;;7.15;2.60;;;;;;;;;;5053871;28;20112;-57
2023/09/20 05:42:13;;;;;;;5.55;2.38;;;;;;;;;;5052021;28;20072;-53
2023/09/20 05:44:39;;;;;;;5.18;2.45;;;;;;;;;;5052719;28;20065;-55
2023/09/20 05:47:05;;;;;;;6.65;2.70;;;;;;;;;;5049130;28;20120;-51
2023/09/20 05:49:30;;;;;;;8.32;2.50;;;;;;;;;;5053194;28;20033;-56
2023/09/20 05:51:56;;;;;;;5.55;2.30;;;;;;;;;;5052487;28;20037;-55
2023/09/20 05:54:22;;;;;;;5.03;2.45;;;;;;;;;;5051805;28;20055;-56
2023/09/20 05:56:51;;;;;;;4.97;2.30;;;;;;;;;;5053538;28;20078;-56
2023/09/20 05:59:19;;;;;;;5.70;2.85;;;;;;;;;;5052664;28;20209;-52
2023/09/20 06:01:45;;;;;;;5.00;2.17;;;;;;;;;;5053491;28;20029;-54
2023/09/20 06:04:10;;;;;;;7.05;2.45;;;;;;;;;;5052301;28;20389;-55
2023/09/20 06:06:37;;;;;;;6.45;2.40;;;;;;;;;;5033380;28;20032;-54
2023/09/20 06:09:03;;;;;;;4.75;2.30;;;;;;;;;;5051269;28;20031;-54
2023/09/20 06:11:29;;;;;;;5.57;2.30;;;;;;;;;;5052332;28;20400;-51
2023/09/20 06:13:54;;;;;;;6.28;2.22;;;;;;;;;;5053207;28;20035;-55
2023/09/20 06:16:20;;;;;;;6.60;2.30;;;;;;;;;;5051811;28;20043;-53
2023/09/20 06:18:48;;;;;;;4.78;2.13;;;;;;;;;;5052472;28;20116;-52
2023/09/20 06:21:14;;;;;;;6.43;2.42;;;;;;;;;;5052247;28;20090;-54
2023/09/20 06:23:40;;;;;;;4.90;2.40;;;;;;;;;;5053092;28;20055;-52
2023/09/20 06:26:12;;;;;;;7.00;2.60;;;;;;;;;;5050571;28;20398;-55
2023/09/20 06:28:42;;;;;;;7.22;2.40;;;;;;;;;;5051408;28;20025;-56
2023/09/20 06:31:16;;;;;;;3.80;2.20;;;;;;;;;;5050625;28;20029;-51
2023/09/20 06:33:46;;;;;;;4.88;2.20;;;;;;;;;;5052189;28;20029;-54
2023/09/20 06:36:20;;;;;;;6.57;2.22;;;;;;;;;;5050576;28;20033;-55
2023/09/20 06:38:47;;;;;;;7.50;2.80;;;;;;;;;;5051278;28;20132;-52
2023/09/20 06:41:13;;;;;;;5.22;2.30;;;;;;;;;;5050526;28;20025;-56
2023/09/20 06:43:39;;;;;;;5.30;2.20;;;;;;;;;;5051305;28;20123;-56
2023/09/20 06:46:06;;;;;;;6.80;2.50;;;;;;;;;;5050200;28;20116;-55
2023/09/20 06:48:31;;;;;;;5.63;2.10;;;;;;;;;;5050412;28;20040;-53
2023/09/20 06:50:57;;;;;;;8.43;2.28;;;;;;;;;;5052171;28;20029;-54
2023/09/20 06:53:23;;;;;;;8.95;2.40;;;;;;;;;;5051256;28;20036;-54
2023/09/20 06:55:50;;;;;;;4.80;2.30;;;;;;;;;;5052289;28;20111;-55
2023/09/20 06:58:16;;;;;;;4.35;2.10;;;;;;;;;;5051520;28;20032;-55
2023/09/20 07:00:42;;;;;;;4.93;2.10;;;;;;;;;;5052380;28;20139;-56
2023/09/20 07:03:08;;;;;;;5.82;2.25;;;;;;;;;;5049754;28;20040;-55
2023/09/20 07:05:34;;;;;;;6.63;2.30;;;;;;;;;;5052107;28;20032;-56
2023/09/20 07:08:00;;;;;;;6.38;2.13;;;;;;;;;;5052184;28;20025;-55
2023/09/20 07:10:29;;;;;;;4.38;2.10;;;;;;;;;;5050568;28;20044;-55
2023/09/20 07:12:57;;;;;;;5.45;2.22;;;;;;;;;;5052116;28;20108;-57
2023/09/20 07:15:25;;;;;;;4.78;2.17;;;;;;;;;;5050543;28;20036;-55
2023/09/20 07:17:58;;;;;;;6.00;2.00;;;;;;;;;;5062883;28;20049;-55
2023/09/20 07:20:24;;;;;;;6.53;2.03;;;;;;;;;;5038282;28;20115;-52
2023/09/20 07:22:51;;;;;;;6.13;2.30;;;;;;;;;;5050512;28;20048;-55
2023/09/20 07:25:20;;;;;;;5.75;2.17;;;;;;;;;;5051095;28;20047;-55
2023/09/20 07:27:47;;;;;;;6.63;2.30;;;;;;;;;;5051844;28;20123;-56
2023/09/20 07:30:19;;;;;;;4.05;2.30;;;;;;;;;;5051105;28;20086;-56
2023/09/20 07:32:45;;;;;;;4.03;1.90;;;;;;;;;;5051823;28;20056;-57
2023/09/20 07:35:58;;;;;;;7.65;2.13;;;;;;;;;;5048214;28;20420;-57
2023/09/20 07:37:57;;;;;;;5.07;2.20;;;;;;;;;;5043977;28;20535;-56
2023/09/20 07:40:30;;;;;;;7.03;2.22;;;;;;;;;;5051145;28;20071;-56
2023/09/20 07:43:04;;;;;;;6.82;2.03;;;;;;;;;;5051759;28;20182;-55
2023/09/20 07:45:38;;;;;;;4.50;2.28;;;;;;;;;;5049044;28;20025;-54
2023/09/20 07:48:17;;;;;;;3.70;1.98;;;;;;;;;;5051435;28;20037;-55
2023/09/20 07:50:49;;;;;;;6.05;2.10;;;;;;;;;;5051662;28;20035;-56
2023/09/20 07:53:16;;;;;;;3.58;1.88;;;;;;;;;;5050645;28;20029;-54
2023/09/20 07:55:44;;;;;;;4.82;1.90;;;;;;;;;;5050007;28;20029;-56
2023/09/20 07:58:14;;;;;;;5.60;1.83;;;;;;;;;;5050323;28;20420;-51
2023/09/20 08:00:52;;;;;;;4.68;1.92;;;;;;;;;;5049439;28;20037;-54
2023/09/20 08:03:21;;;;;;;5.05;2.40;;;;;;;;;;5050405;28;20393;-55
2023/09/20 08:05:48;;;;;;;6.82;2.00;;;;;;;;;;5051024;28;20032;-55
2023/09/20 08:08:13;;;;;;;4.63;2.03;;;;;;;;;;5054721;28;20029;-54
2023/09/20 08:10:40;;;;;;;3.83;1.88;;;;;;;;;;5055389;28;20082;-54
2023/09/20 08:13:06;;;;;;;4.95;1.90;;;;;;;;;;5055233;28;20120;-56
2023/09/20 08:15:38;;;;;;;5.03;2.10;;;;;;;;;;5052625;28;20124;-57
2023/09/20 08:20:47;;;;;;;5.18;2.20;;;;;;;;;;5055668;28;20036;-53
2023/09/20 09:01:38;;;;;;;6.30;1.88;;;;;;;;;;5052408;28;20040;-57
2023/09/20 09:04:08;;;;;;;5.07;1.90;;;;;;;;;;5054761;28;20033;-56
2023/09/20 09:06:34;;;;;;;4.28;1.80;;;;;;;;;;5054041;28;20025;-53
2023/09/20 09:09:01;;;;;;;4.28;1.92;;;;;;;;;;5054810;28;20441;-55
2023/09/20 09:11:28;;;;;;;3.72;1.75;;;;;;;;;;5053961;28;20064;-55
2023/09/20 09:13:57;;;;;;;4.15;1.90;;;;;;;;;;5054463;28;20423;-56
2023/09/20 09:16:24;;;;;;;3.05;1.70;;;;;;;;;;5051495;28;20033;-55
2023/09/20 09:18:49;;;;;;;6.53;1.88;;;;;;;;;;5049622;28;20393;-55
2023/09/20 09:21:17;;;;;;;2.28;1.70;;;;;;;;;;5052699;28;20033;-54
2023/09/20 09:23:45;;;;;;;2.72;1.55;;;;;;;;;;5054072;28;20605;-55
2023/09/20 09:26:13;;;;;;;6.07;2.03;;;;;;;;;;5053800;28;20029;-54
2023/09/20 09:28:40;;;;;;;5.20;1.90;;;;;;;;;;5054173;28;20219;-56
2023/09/20 09:31:08;;;;;;;4.70;1.60;;;;;;;;;;5054626;28;20048;-55
2023/09/20 09:33:35;;;;;;;2.80;1.55;;;;;;;;;;5052140;28;20040;-54
2023/09/20 09:36:02;;;;;;;3.13;1.80;;;;;;;;;;5053522;28;20020;-54
2023/09/20 09:38:28;;;;;;;4.43;1.60;;;;;;;;;;5053160;28;20079;-55
2023/09/20 09:40:58;;;;;;;3.70;1.70;;;;;;;;;;5054048;28;20387;-56
2023/09/20 09:43:25;;;;;;;2.88;1.50;;;;;;;;;;5053251;28;20529;-54
2023/09/20 09:46:00;;;;;;;6.95;1.85;;;;;;;;;;5051119;28;20037;-55
2023/09/20 09:48:29;;;;;;;5.07;1.60;;;;;;;;;;5051782;28;20465;-56
2023/09/20 09:50:57;;;;;;;3.38;1.73;;;;;;;;;;5052591;28;20104;-55
2023/09/20 09:53:25;;;;;;;3.53;1.70;;;;;;;;;;5051413;28;20059;-55
2023/09/20 09:55:51;;;;;;;3.83;1.70;;;;;;;;;;5054000;28;20029;-55
2023/09/20 09:58:17;;;;;;;2.88;1.73;;;;;;;;;;5052820;28;20028;-55
2023/09/20 10:00:48;;;;;;;3.50;1.60;;;;;;;;;;5053037;28;20090;-55
2023/09/20 10:03:34;;;;;;;;;;;;;;;;;;5052421;28;20041;-54
2023/09/20 10:06:14;;;;;;;3.58;1.40;;;;;;;;;;5053073;28;19917;-55
2023/09/20 10:08:41;;;;;;;4.13;1.60;;;;;;;;;;5053582;28;20056;-57
2023/09/20 10:11:08;;;;;;;4.07;1.70;;;;;;;;;;5053405;28;20051;-57
2023/09/20 10:13:36;;;;;;;3.40;1.60;;;;;;;;;;5052685;28;20089;-55
2023/09/20 10:16:04;;;;;;;3.67;1.60;;;;;;;;;;5051293;28;20068;-55
2023/09/20 10:18:53;;;;;;;3.55;1.50;;;;;;;;;;5052173;28;20056;-55
2023/09/20 10:21:26;;;;;;;1.83;1.42;;;;;;;;;;5044846;28;20132;-56
2023/09/20 10:23:59;;;;;;;3.60;1.65;;;;;;;;;;5053069;28;20040;-56
2023/09/20 10:26:26;;;;;;;4.07;1.50;;;;;;;;;;5052375;28;20036;-55
2023/09/20 10:28:57;;;;;;;4.03;1.58;;;;;;;;;;5051100;28;20074;-53
2023/09/20 10:31:23;;;;;;;3.25;1.48;;;;;;;;;;5051197;28;20500;-56
2023/09/20 10:33:54;;;;;;;4.50;2.03;;;;;;;;;;5052745;28;20051;-58
2023/09/20 10:36:27;;;;;;;3.72;1.70;;;;;;;;;;5052123;28;20474;-57
2023/09/20 10:39:17;;;;;;;1.88;1.40;;;;;;;;;;5052966;28;20117;-55
2023/09/20 10:41:47;;;;;;;3.83;1.60;;;;;;;;;;5052940;28;20110;-53
2023/09/20 10:44:35;;;;;;;3.95;1.40;;;;;;;;;;5046254;28;20033;-54
2023/09/20 10:47:06;;;;;;;4.28;1.80;;;;;;;;;;5050265;28;20102;-57
2023/09/20 10:49:54;;;;;;;2.65;1.50;;;;;;;;;;5051424;28;20452;-56
2023/09/20 10:52:34;;;;;;;2.95;1.58;;;;;;;;;;5050557;28;20056;-55
2023/09/20 10:55:35;;;;;;;2.17;1.42;;;;;;;;;;5051460;28;20029;-53
2023/09/20 10:58:01;;;;;;;;;;;;;;;;;;5019449;28;20119;-57
2023/09/20 11:00:30;;;;;;;3.55;1.55;;;;;;;;;;5050918;28;20003;-55
2023/09/20 11:02:56;;;;;;;2.40;1.50;;;;;;;;;;5052364;28;20033;-57
2023/09/20 11:05:23;;;;;;;2.97;1.60;;;;;;;;;;5050189;28;20033;-57
2023/09/20 11:07:50;;;;;;;3.38;1.45;;;;;;;;;;5052286;28;20037;-57
2023/09/20 11:10:19;;;;;;;3.28;1.50;;;;;;;;;;5052166;28;20029;-55
2023/09/20 11:12:45;;;;;;;2.90;1.60;;;;;;;;;;5052326;28;20032;-55
2023/09/20 11:15:13;;;;;;;4.15;1.60;;;;;;;;;;5049094;28;20037;-54
2023/09/20 11:17:39;;;;;;;3.75;1.70;;;;;;;;;;5051302;28;20061;-56
2023/09/20 11:20:07;;;;;;;3.83;1.70;;;;;;;;;;5052453;28;20108;-56
2023/09/20 11:22:32;;;;;;;3.78;1.85;;;;;;;;;;5051790;28;20029;-55
2023/09/20 11:25:00;;;;;;;4.35;1.80;;;;;;;;;;5050856;28;20028;-55
2023/09/20 11:27:27;;;;;;;3.35;1.80;;;;;;;;;;5051251;28;20029;-56
2023/09/20 11:29:53;;;;;;;2.55;1.75;;;;;;;;;;5051844;28;20032;-55
2023/09/20 11:32:22;;;;;;;3.15;1.60;;;;;;;;;;5051975;28;20036;-57
2023/09/20 11:34:51;;;;;;;4.05;1.77;;;;;;;;;;5051944;28;20029;-54
2023/09/20 11:37:19;;;;;;;1.77;1.45;;;;;;;;;;5050636;28;20033;-57
2023/09/20 11:39:56;;;;;;;3.17;1.67;;;;;;;;;;5051260;28;20093;-53
2023/09/20 11:42:25;;;;;;;4.22;1.52;;;;;;;;;;5049590;28;20059;-56
2023/09/20 11:44:56;;;;;;;3.22;1.70;;;;;;;;;;5049208;28;20044;-55
2023/09/20 11:47:21;;;;;;;;;;;;;;;;;;5051403;28;20461;-57
2023/09/20 11:49:47;;;;;;;7.05;1.67;;;;;;;;;;5051554;28;19916;-56
2023/09/20 11:52:17;;;;;;;3.97;1.70;;;;;;;;;;5050356;28;20025;-56
2023/09/20 11:54:43;;;;;;;3.10;1.57;;;;;;;;;;5051170;28;20029;-56
2023/09/20 11:57:18;;;;;;;4.78;1.60;;;;;;;;;;5051514;28;20481;-57
2023/09/20 11:59:44;;;;;;;4.70;1.40;;;;;;;;;;5050078;28;20037;-52
2023/09/20 12:02:12;;;;;;;1.40;1.30;;;;;;;;;;5051788;28;20029;-55
2023/09/20 12:04:38;;;;;;;3.22;1.30;;;;;;;;;;5050634;28;20055;-57
2023/09/20 12:07:03;;;;;;;3.60;1.40;;;;;;;;;;5051475;28;20466;-57
2023/09/20 12:09:29;;;;;;;3.25;1.10;;;;;;;;;;5049359;28;20033;-53
2023/09/20 12:11:54;;;;;;;3.03;1.30;;;;;;;;;;5051554;28;20021;-57
2023/09/20 12:14:20;;;;;;;2.90;1.30;;;;;;;;;;5049605;28;20037;-58
2023/09/20 12:16:49;;;;;;;4.30;1.42;;;;;;;;;;5049468;28;20053;-56
2023/09/20 12:19:16;;;;;;;3.10;1.50;;;;;;;;;;5051903;28;20112;-57
2023/09/20 12:21:44;;;;;;;3.75;1.40;;;;;;;;;;5049335;28;20341;-56
2023/09/20 12:24:11;;;;;;;2.13;1.33;;;;;;;;;;5051567;28;20123;-57
2023/09/20 12:26:37;;;;;;;3.10;1.50;;;;;;;;;;5047436;28;20033;-57
2023/09/20 12:29:02;;;;;;;4.32;1.63;;;;;;;;;;5062632;28;20080;-56
2023/09/20 12:31:28;;;;;;;3.88;1.67;;;;;;;;;;5030467;28;20029;-57
2023/09/20 12:33:53;;;;;;;4.00;1.50;;;;;;;;;;5031607;28;20049;-57
2023/09/20 12:36:23;;;;;;;2.50;1.58;;;;;;;;;;5031665;28;20041;-57
2023/09/20 12:38:49;;;;;;;2.92;1.50;;;;;;;;;;5030201;28;20029;-57
2023/09/20 12:41:15;;;;;;;3.22;1.55;;;;;;;;;;5031392;28;20029;-57
2023/09/20 12:43:40;;;;;;;2.53;1.38;;;;;;;;;;5033996;28;20640;-58
2023/09/20 12:46:07;;;;;;;3.88;1.50;;;;;;;;;;5043489;28;20039;-56
2023/09/20 12:48:33;;;;;;;2.15;1.30;;;;;;;;;;5049092;28;20043;-57
2023/09/20 12:50:58;;;;;;;2.88;1.50;;;;;;;;;;5050984;28;20146;-57
2023/09/20 12:53:24;;;;;;;4.40;1.60;;;;;;;;;;5053484;28;20541;-57
2023/09/20 12:55:50;;;;;;;3.17;1.50;;;;;;;;;;5054630;28;20029;-56
2023/09/20 12:58:16;;;;;;;2.97;1.80;;;;;;;;;;5053586;28;20462;-56
2023/09/20 13:00:42;;;;;;;3.70;1.63;;;;;;;;;;5051775;28;20129;-54
2023/09/20 13:03:08;;;;;;;3.63;1.65;;;;;;;;;;5052776;28;20358;-55
2023/09/20 13:05:36;;;;;;;4.88;1.60;;;;;;;;;;5053804;28;20029;-56
2023/09/20 13:08:02;;;;;;;3.88;2.08;;;;;;;;;;5054353;28;20033;-55
2023/09/20 13:10:29;;;;;;;2.40;1.60;;;;;;;;;;5053915;28;20047;-55
2023/09/20 13:12:55;;;;;;;3.45;1.83;;;;;;;;;;5053650;28;20025;-55
2023/09/20 13:15:20;;;;;;;3.78;1.70;;;;;;;;;;5054112;28;20025;-58
2023/09/20 13:17:55;;;;;;;2.70;1.60;;;;;;;;;;5051324;28;20088;-57
2023/09/20 13:20:22;;;;;;;2.65;1.55;;;;;;;;;;5051260;28;20037;-56
2023/09/20 13:22:52;;;;;;;4.50;1.80;;;;;;;;;;5053618;28;20507;-57
2023/09/20 13:25:19;;;;;;;3.28;1.55;;;;;;;;;;5054792;28;20473;-54
2023/09/20 13:27:44;;;;;;;4.93;1.80;;;;;;;;;;5053339;28;20083;-54
2023/09/20 13:30:11;;;;;;;2.65;1.65;;;;;;;;;;5053151;28;20036;-56
2023/09/20 13:32:38;;;;;;;5.72;1.70;;;;;;;;;;5053412;28;20029;-56
2023/09/20 13:35:06;;;;;;;2.55;1.70;;;;;;;;;;5054231;28;20025;-56
2023/09/20 13:37:32;;;;;;;3.95;1.88;;;;;;;;;;5053413;28;20107;-55
2023/09/20 13:39:58;;;;;;;5.65;1.58;;;;;;;;;;5053686;28;20108;-57
2023/09/20 13:42:23;;;;;;;4.00;1.70;;;;;;;;;;5051902;28;20111;-54
2023/09/20 13:44:50;;;;;;;3.03;1.80;;;;;;;;;;5053047;28;20082;-54
2023/09/20 13:47:18;;;;;;;4.30;1.70;;;;;;;;;;5053819;28;20036;-55
2023/09/20 13:49:48;;;;;;;2.90;1.63;;;;;;;;;;5052873;28;20487;-55
2023/09/20 13:52:14;;;;;;;3.97;1.67;;;;;;;;;;5052283;28;20037;-55
2023/09/20 13:54:39;;;;;;;3.03;1.80;;;;;;;;;;5052867;28;20040;-55
2023/09/20 13:57:05;;;;;;;3.95;1.70;;;;;;;;;;5051227;28;20462;-56
2023/09/20 13:59:31;;;;;;;3.83;1.80;;;;;;;;;;5052694;28;20033;-57
2023/09/20 14:02:00;;;;;;;3.10;1.70;;;;;;;;;;5053425;28;20493;-56
2023/09/20 14:04:28;;;;;;;2.40;1.60;;;;;;;;;;5052340;28;20021;-56
2023/09/20 14:06:55;;;;;;;3.75;1.80;;;;;;;;;;5053388;28;20389;-56
2023/09/20 14:09:22;;;;;;;3.95;1.73;;;;;;;;;;5051948;28;20386;-51
2023/09/20 14:11:47;;;;;;;2.78;2.00;;;;;;;;;;5051713;28;20103;-55
2023/09/20 14:14:13;;;;;;;3.55;1.92;;;;;;;;;;5048994;28;20381;-56
2023/09/20 14:16:38;;;;;;;2.45;1.75;;;;;;;;;;5050991;28;20055;-56
2023/09/20 14:19:05;;;;;;;3.10;1.90;;;;;;;;;;5052060;28;20029;-56
2023/09/20 14:21:30;;;;;;;4.30;1.90;;;;;;;;;;5051040;28;20083;-57
2023/09/20 14:23:58;;;;;;;4.32;2.00;;;;;;;;;;5053012;28;20386;-56
2023/09/20 14:26:30;;;;;;;4.75;2.08;;;;;;;;;;5048917;28;20083;-56
2023/09/20 14:28:56;;;;;;;4.68;1.80;;;;;;;;;;5052396;28;20052;-56
2023/09/20 14:31:21;;;;;;;5.65;2.38;;;;;;;;;;5051000;28;20032;-56
2023/09/20 14:33:48;;;;;;;3.97;2.00;;;;;;;;;;5051640;28;20641;-55
2023/09/20 14:36:14;;;;;;;3.63;1.90;;;;;;;;;;5052924;28;20037;-56
2023/09/20 14:38:43;;;;;;;2.75;2.10;;;;;;;;;;5052227;28;20485;-56
2023/09/20 14:41:08;;;;;;;2.33;1.92;;;;;;;;;;5050015;28;20075;-54
2023/09/20 14:43:34;;;;;;;4.35;2.00;;;;;;;;;;5051725;28;20037;-55
2023/09/20 14:46:05;;;;;;;4.18;2.03;;;;;;;;;;5052880;28;20064;-57
2023/09/20 14:48:31;;;;;;;4.47;2.00;;;;;;;;;;5050875;28;20132;-58
2023/09/20 14:51:01;;;;;;;3.65;2.00;;;;;;;;;;5052584;28;20039;-55
2023/09/20 14:53:27;;;;;;;2.42;1.92;;;;;;;;;;5052518;28;20039;-56
2023/09/20 14:55:52;;;;;;;6.57;2.53;;;;;;;;;;5047770;28;20086;-57
2023/09/20 14:58:18;;;;;;;3.55;2.10;;;;;;;;;;5052441;28;20078;-56
2023/09/20 15:00:44;;;;;;;4.25;2.30;;;;;;;;;;5051511;28;20036;-56
2023/09/20 15:03:12;;;;;;;3.55;2.22;;;;;;;;;;5052562;28;20037;-58
2023/09/20 15:05:38;;;;;;;3.33;2.10;;;;;;;;;;5051889;28;20025;-54
2023/09/20 15:08:05;;;;;;;3.50;2.20;;;;;;;;;;5048861;28;20037;-57
2023/09/20 15:10:33;;;;;;;3.17;1.88;;;;;;;;;;5039218;28;20048;-56
2023/09/20 15:13:01;;;;;;;5.28;2.25;;;;;;;;;;5048577;28;20033;-55
2023/09/20 15:15:32;;;;;;;3.72;2.00;;;;;;;;;;5043691;28;20067;-57
2023/09/20 15:17:58;;;;;;;3.35;2.17;;;;;;;;;;5051388;28;20052;-51
2023/09/20 15:20:23;;;;;;;3.38;2.13;;;;;;;;;;5051987;28;20029;-56
2023/09/20 15:22:50;;;;;;;5.22;2.10;;;;;;;;;;5050911;28;20037;-55
2023/09/20 15:25:18;;;;;;;3.83;2.20;;;;;;;;;;5050358;28;20033;-54
2023/09/20 15:27:44;;;;;;;3.70;2.30;;;;;;;;;;5051266;28;20119;-54